Time;durP1;ratioP1;P1;durP2;ratioP2;P2;SDS_P1;SDS_P2;PMS_P1;PMS_P2;Temp;Humidity;BMP_temperature;BMP_pressure;BME280_temperature;BME280_humidity;BME280_pressure;Samples;Min_cycle;Max_cycle;Signal;HPM_P1;HPM_P2
2022/05/23 00:01:50;;;;;;;7.18;2.05;;;;;;;;;;4996839;28;20046;-75
2022/05/23 00:04:16;;;;;;;6.93;2.13;;;;;;;;;;5012380;28;20053;-75
2022/05/23 00:06:43;;;;;;;8.85;2.47;;;;;;;;;;5015421;28;20396;-75
2022/05/23 00:09:09;;;;;;;6.13;2.03;;;;;;;;;;5009999;28;20050;-75
2022/05/23 00:11:35;;;;;;;8.93;1.98;;;;;;;;;;5011066;28;20053;-75
2022/05/23 00:14:01;;;;;;;7.25;1.92;;;;;;;;;;5012557;28;20069;-75
2022/05/23 00:16:31;;;;;;;5.88;2.00;;;;;;;;;;5011849;28;20080;-75
2022/05/23 00:18:58;;;;;;;6.97;2.00;;;;;;;;;;5001232;28;20107;-74
2022/05/23 00:21:24;;;;;;;8.82;2.00;;;;;;;;;;5013482;28;20050;-74
2022/05/23 00:23:50;;;;;;;6.53;2.10;;;;;;;;;;5012678;28;20038;-75
2022/05/23 00:26:19;;;;;;;5.30;2.05;;;;;;;;;;5011791;28;20500;-75
2022/05/23 00:28:45;;;;;;;6.03;2.03;;;;;;;;;;5012894;28;20050;-75
2022/05/23 00:31:11;;;;;;;5.70;2.10;;;;;;;;;;5012910;28;20042;-75
2022/05/23 00:36:24;;;;;;;6.30;2.25;;;;;;;;;;5012447;28;20484;-74
2022/05/23 00:38:51;;;;;;;7.18;2.40;;;;;;;;;;5013202;28;20049;-74
2022/05/23 00:44:08;;;;;;;5.60;1.90;;;;;;;;;;5009638;28;20050;-74
2022/05/23 00:46:34;;;;;;;6.30;2.35;;;;;;;;;;5010684;28;20052;-76
2022/05/23 00:49:03;;;;;;;8.43;2.15;;;;;;;;;;5013318;28;20065;-75
2022/05/23 00:51:30;;;;;;;5.68;2.17;;;;;;;;;;5008946;28;20073;-75
2022/05/23 00:53:57;;;;;;;6.10;2.00;;;;;;;;;;5012435;28;20403;-75
2022/05/23 00:56:24;;;;;;;8.00;2.10;;;;;;;;;;5012369;28;20558;-75
2022/05/23 00:58:52;;;;;;;8.43;2.45;;;;;;;;;;5012551;28;20407;-75
2022/05/23 01:01:21;;;;;;;4.90;1.88;;;;;;;;;;5022173;28;20381;-75
2022/05/23 01:03:47;;;;;;;6.43;2.00;;;;;;;;;;5012602;28;20121;-75
2022/05/23 01:06:13;;;;;;;7.45;2.10;;;;;;;;;;5012888;28;20074;-74
2022/05/23 01:08:40;;;;;;;6.70;2.33;;;;;;;;;;5011986;28;20048;-74
2022/05/23 01:11:06;;;;;;;6.60;2.30;;;;;;;;;;5009335;28;20065;-74
2022/05/23 01:13:32;;;;;;;6.68;2.50;;;;;;;;;;5010342;28;20427;-73
2022/05/23 01:15:59;;;;;;;7.15;2.58;;;;;;;;;;5010766;28;20038;-75
2022/05/23 01:18:25;;;;;;;6.50;2.40;;;;;;;;;;5009569;28;20117;-74
2022/05/23 01:20:55;;;;;;;7.60;2.50;;;;;;;;;;5010214;28;20042;-74
2022/05/23 01:23:30;;;;;;;5.85;2.40;;;;;;;;;;5011406;28;20057;-75
2022/05/23 01:25:56;;;;;;;7.03;2.30;;;;;;;;;;5012747;28;20060;-75
2022/05/23 01:28:22;;;;;;;6.40;2.53;;;;;;;;;;5009494;28;20121;-75
2022/05/23 01:30:48;;;;;;;7.40;2.80;;;;;;;;;;5011195;28;20038;-75
2022/05/23 01:33:14;;;;;;;6.72;2.80;;;;;;;;;;5011111;28;20115;-75
2022/05/23 01:35:41;;;;;;;5.18;2.33;;;;;;;;;;5012034;28;20074;-75
2022/05/23 01:38:07;;;;;;;5.47;2.50;;;;;;;;;;5010725;28;20076;-75
2022/05/23 01:40:34;;;;;;;8.02;2.60;;;;;;;;;;5009812;28;20085;-75
2022/05/23 01:43:00;;;;;;;5.55;2.78;;;;;;;;;;5007808;28;20049;-75
2022/05/23 01:45:31;;;;;;;9.57;3.20;;;;;;;;;;5009726;28;20058;-76
2022/05/23 01:47:58;;;;;;;8.00;3.03;;;;;;;;;;5006279;28;20056;-75
2022/05/23 01:50:24;;;;;;;6.05;2.80;;;;;;;;;;5010373;28;20496;-75
2022/05/23 01:52:51;;;;;;;7.10;2.75;;;;;;;;;;5012285;28;20385;-75
2022/05/23 01:55:18;;;;;;;8.38;3.03;;;;;;;;;;5011886;28;20092;-74
2022/05/23 01:57:44;;;;;;;7.45;3.10;;;;;;;;;;5011130;28;20046;-74
2022/05/23 02:02:56;;;;;;;9.02;2.90;;;;;;;;;;5012392;28;20046;-75
2022/05/23 02:05:25;;;;;;;6.57;2.88;;;;;;;;;;5010808;28;20053;-74
2022/05/23 02:07:51;;;;;;;7.75;3.08;;;;;;;;;;5012235;28;20189;-75
2022/05/23 02:10:17;;;;;;;10.05;2.90;;;;;;;;;;5008037;28;20107;-74
2022/05/23 02:12:43;;;;;;;7.50;2.80;;;;;;;;;;5008494;28;20057;-74
2022/05/23 02:15:09;;;;;;;8.30;3.00;;;;;;;;;;5009208;28;20048;-74
2022/05/23 02:17:35;;;;;;;7.13;3.10;;;;;;;;;;5006331;28;20037;-75
2022/05/23 02:20:02;;;;;;;5.55;2.90;;;;;;;;;;5010522;28;20038;-74
2022/05/23 02:22:28;;;;;;;9.52;2.90;;;;;;;;;;5011899;28;20045;-74
2022/05/23 02:24:54;;;;;;;7.28;3.08;;;;;;;;;;5011223;28;20050;-74
2022/05/23 02:27:20;;;;;;;6.40;3.13;;;;;;;;;;5011959;28;20464;-74
2022/05/23 02:29:46;;;;;;;10.90;3.63;;;;;;;;;;5011104;28;20504;-74
2022/05/23 02:32:12;;;;;;;7.43;3.47;;;;;;;;;;5011872;28;20041;-74
2022/05/23 02:34:39;;;;;;;8.70;3.30;;;;;;;;;;5009999;28;20042;-75
2022/05/23 02:37:05;;;;;;;6.70;3.50;;;;;;;;;;5008839;28;20073;-74
2022/05/23 02:39:31;;;;;;;7.05;2.90;;;;;;;;;;5011885;28;20077;-75
2022/05/23 02:41:57;;;;;;;7.72;3.20;;;;;;;;;;5010053;28;20046;-75
2022/05/23 02:44:23;;;;;;;8.48;3.20;;;;;;;;;;5011212;28;20511;-75
2022/05/23 02:46:49;;;;;;;7.75;3.17;;;;;;;;;;5008867;28;20073;-74
2022/05/23 02:49:15;;;;;;;5.32;2.92;;;;;;;;;;5007448;28;20480;-75
2022/05/23 02:51:41;;;;;;;7.05;3.00;;;;;;;;;;5010933;28;20456;-75
2022/05/23 02:54:07;;;;;;;9.35;3.53;;;;;;;;;;5013283;28;20085;-75
2022/05/23 02:56:34;;;;;;;7.95;3.22;;;;;;;;;;5015440;28;20074;-75
2022/05/23 02:59:00;;;;;;;6.50;3.03;;;;;;;;;;5014234;28;20053;-75
2022/05/23 03:01:26;;;;;;;7.53;3.47;;;;;;;;;;5014744;28;20125;-75
2022/05/23 03:03:52;;;;;;;7.60;3.53;;;;;;;;;;5013086;28;20130;-75
2022/05/23 03:06:18;;;;;;;9.20;3.55;;;;;;;;;;5014009;28;20411;-75
2022/05/23 03:08:44;;;;;;;7.28;3.50;;;;;;;;;;5016073;28;20121;-75
2022/05/23 03:11:10;;;;;;;8.07;3.83;;;;;;;;;;5010184;28;20058;-75
2022/05/23 03:13:37;;;;;;;6.93;3.30;;;;;;;;;;5014729;28;20071;-75
2022/05/23 03:16:10;;;;;;;10.10;3.70;;;;;;;;;;5011045;28;20428;-75
2022/05/23 03:18:36;;;;;;;8.65;3.53;;;;;;;;;;5013383;28;20038;-74
2022/05/23 03:21:08;;;;;;;8.30;3.70;;;;;;;;;;5013376;28;20057;-74
2022/05/23 03:29:06;;;;;;;8.70;3.50;;;;;;;;;;5013225;28;20058;-75
2022/05/23 03:31:32;;;;;;;8.80;3.20;;;;;;;;;;5013692;28;20484;-75
2022/05/23 03:33:58;;;;;;;6.75;3.45;;;;;;;;;;5014061;28;20456;-75
2022/05/23 03:36:24;;;;;;;11.65;3.70;;;;;;;;;;4997063;28;20053;-75
2022/05/23 03:38:50;;;;;;;7.63;3.78;;;;;;;;;;5008175;28;20034;-75
2022/05/23 03:41:16;;;;;;;9.38;3.90;;;;;;;;;;4995555;28;20050;-74
2022/05/23 03:43:42;;;;;;;7.60;3.22;;;;;;;;;;5014078;28;20176;-75
2022/05/23 03:46:09;;;;;;;7.60;3.80;;;;;;;;;;5004268;28;20050;-75
2022/05/23 03:48:36;;;;;;;11.55;3.72;;;;;;;;;;5014093;28;20092;-75
2022/05/23 03:51:02;;;;;;;9.80;3.88;;;;;;;;;;4998544;28;20487;-75
2022/05/23 03:53:29;;;;;;;7.35;3.38;;;;;;;;;;5009845;28;20397;-75
2022/05/23 03:55:55;;;;;;;7.75;3.78;;;;;;;;;;5013768;28;20042;-75
2022/05/23 03:58:22;;;;;;;8.38;3.78;;;;;;;;;;5013178;28;20052;-75
2022/05/23 04:00:50;;;;;;;8.52;3.92;;;;;;;;;;5002345;28;20054;-75
2022/05/23 04:03:17;;;;;;;6.65;3.25;;;;;;;;;;4996452;28;20579;-75
2022/05/23 04:05:43;;;;;;;8.75;3.70;;;;;;;;;;5014519;28;20046;-74
2022/05/23 04:08:10;;;;;;;6.60;3.60;;;;;;;;;;5013894;28;20056;-74
2022/05/23 04:10:36;;;;;;;9.13;3.80;;;;;;;;;;5012757;28;20058;-74
2022/05/23 04:13:02;;;;;;;8.38;3.75;;;;;;;;;;5013773;28;20519;-75
2022/05/23 04:15:28;;;;;;;7.78;3.88;;;;;;;;;;5020920;28;20157;-74
2022/05/23 04:17:54;;;;;;;9.73;4.03;;;;;;;;;;5015832;28;20046;-73
2022/05/23 04:20:21;;;;;;;9.75;3.67;;;;;;;;;;5003702;28;20050;-73
2022/05/23 04:22:47;;;;;;;7.28;3.72;;;;;;;;;;5014313;28;20038;-74
2022/05/23 04:25:13;;;;;;;7.65;4.00;;;;;;;;;;5012666;28;20042;-75
2022/05/23 04:27:39;;;;;;;10.05;4.32;;;;;;;;;;4995424;28;20046;-74
2022/05/23 04:30:06;;;;;;;9.65;4.22;;;;;;;;;;5004897;28;20431;-74
2022/05/23 04:35:17;;;;;;;8.88;4.00;;;;;;;;;;5012411;28;20049;-74
2022/05/23 04:37:48;;;;;;;10.15;3.95;;;;;;;;;;4994334;28;20050;-74
2022/05/23 04:40:15;;;;;;;10.10;4.07;;;;;;;;;;5000085;28;20128;-74
2022/05/23 04:42:41;;;;;;;7.10;3.67;;;;;;;;;;5011320;28;20045;-75
2022/05/23 04:45:07;;;;;;;9.23;3.88;;;;;;;;;;5013208;28;20077;-74
2022/05/23 04:50:18;;;;;;;7.63;3.72;;;;;;;;;;5004489;28;20046;-74
2022/05/23 04:52:44;;;;;;;8.70;4.10;;;;;;;;;;5012907;28;20133;-74
2022/05/23 04:55:10;;;;;;;8.35;3.92;;;;;;;;;;4999264;28;20137;-74
2022/05/23 04:57:36;;;;;;;8.45;3.78;;;;;;;;;;5011454;28;20042;-74
2022/05/23 05:00:07;;;;;;;7.95;3.85;;;;;;;;;;5013172;28;20104;-75
2022/05/23 05:02:33;;;;;;;10.05;4.22;;;;;;;;;;5011610;28;20104;-75
2022/05/23 05:04:59;;;;;;;8.70;4.28;;;;;;;;;;4999822;28;20085;-75
2022/05/23 05:07:25;;;;;;;8.38;4.00;;;;;;;;;;5012975;28;20078;-75
2022/05/23 05:09:51;;;;;;;8.77;4.20;;;;;;;;;;5011215;28;20096;-74
2022/05/23 05:12:17;;;;;;;10.15;4.28;;;;;;;;;;5010070;28;20057;-74
2022/05/23 05:14:43;;;;;;;9.65;4.30;;;;;;;;;;5008764;28;20038;-74
2022/05/23 05:17:09;;;;;;;8.60;4.25;;;;;;;;;;5010205;28;20373;-74
2022/05/23 05:19:35;;;;;;;10.20;4.45;;;;;;;;;;5010309;28;20046;-75
2022/05/23 05:22:01;;;;;;;11.85;4.22;;;;;;;;;;5011214;28;20053;-74
2022/05/23 05:24:27;;;;;;;10.63;4.13;;;;;;;;;;5008734;28;21003;-75
2022/05/23 05:26:54;;;;;;;8.13;4.15;;;;;;;;;;4994622;28;20053;-74
2022/05/23 05:29:19;;;;;;;8.98;3.90;;;;;;;;;;5019154;28;20044;-75
2022/05/23 05:31:52;;;;;;;9.98;3.88;;;;;;;;;;5011643;28;20592;-75
2022/05/23 05:34:21;;;;;;;11.77;4.75;;;;;;;;;;5009216;28;20042;-74
2022/05/23 05:36:51;;;;;;;8.43;4.28;;;;;;;;;;5009929;28;20046;-74
2022/05/23 05:39:20;;;;;;;8.27;4.20;;;;;;;;;;5012282;28;20053;-75
2022/05/23 05:41:51;;;;;;;8.63;4.35;;;;;;;;;;5012436;28;20056;-75
2022/05/23 05:44:19;;;;;;;8.82;3.97;;;;;;;;;;5011378;28;20042;-75
2022/05/23 05:46:49;;;;;;;10.00;4.10;;;;;;;;;;5004917;28;20085;-75
2022/05/23 05:49:18;;;;;;;8.00;4.23;;;;;;;;;;5005471;28;20451;-76
2022/05/23 05:51:44;;;;;;;10.55;4.25;;;;;;;;;;5013109;28;20277;-74
2022/05/23 05:54:12;;;;;;;11.00;4.68;;;;;;;;;;5012506;28;20133;-74
2022/05/23 05:56:38;;;;;;;8.68;4.00;;;;;;;;;;5011739;28;20049;-74
2022/05/23 05:59:05;;;;;;;11.05;4.13;;;;;;;;;;5011891;28;20056;-74
2022/05/23 06:01:31;;;;;;;8.35;4.15;;;;;;;;;;5016413;28;20049;-75
2022/05/23 06:03:57;;;;;;;9.95;4.10;;;;;;;;;;5005358;28;20507;-75
2022/05/23 06:11:52;;;;;;;10.02;4.28;;;;;;;;;;5012531;28;20508;-75
2022/05/23 06:14:18;;;;;;;9.35;3.42;;;;;;;;;;5012947;28;20060;-75
2022/05/23 06:16:44;;;;;;;8.98;4.05;;;;;;;;;;5011982;28;20041;-75
2022/05/23 06:19:10;;;;;;;9.85;4.20;;;;;;;;;;5012090;28;20399;-75
2022/05/23 06:21:36;;;;;;;8.82;4.00;;;;;;;;;;5011955;28;20096;-75
2022/05/23 06:24:02;;;;;;;8.23;4.28;;;;;;;;;;5012386;28;20038;-75
2022/05/23 06:26:28;;;;;;;8.40;3.85;;;;;;;;;;5012589;28;20061;-76
2022/05/23 06:28:55;;;;;;;11.10;3.95;;;;;;;;;;5014255;28;20101;-75
2022/05/23 06:31:21;;;;;;;9.80;4.10;;;;;;;;;;5007713;28;20077;-75
2022/05/23 06:33:47;;;;;;;10.00;4.00;;;;;;;;;;5013943;28;20038;-76
2022/05/23 06:36:15;;;;;;;8.20;3.95;;;;;;;;;;5015795;28;20081;-76
2022/05/23 06:38:41;;;;;;;7.78;3.72;;;;;;;;;;5031835;28;20049;-75
2022/05/23 06:41:09;;;;;;;9.13;4.07;;;;;;;;;;5035929;28;20049;-75
2022/05/23 06:43:35;;;;;;;9.45;4.20;;;;;;;;;;5023479;28;20049;-74
2022/05/23 06:46:02;;;;;;;10.02;4.00;;;;;;;;;;5016299;28;20054;-75
2022/05/23 06:48:28;;;;;;;9.05;3.83;;;;;;;;;;5015674;28;20045;-74
2022/05/23 06:50:55;;;;;;;9.05;4.25;;;;;;;;;;5013473;28;20381;-75
2022/05/23 06:53:21;;;;;;;8.63;4.10;;;;;;;;;;5010644;28;20053;-75
2022/05/23 06:55:48;;;;;;;9.15;3.85;;;;;;;;;;5013155;28;20078;-74
2022/05/23 06:58:14;;;;;;;8.70;3.70;;;;;;;;;;5014016;28;20042;-75
2022/05/23 07:00:40;;;;;;;8.57;4.20;;;;;;;;;;5015282;28;20565;-75
2022/05/23 07:03:06;;;;;;;8.57;4.03;;;;;;;;;;5014906;28;20130;-75
2022/05/23 07:13:47;;;;;;;8.63;3.70;;;;;;;;;;5014156;28;20519;-74
2022/05/23 07:16:16;;;;;;;8.57;4.10;;;;;;;;;;5019071;28;20089;-75
2022/05/23 07:18:42;;;;;;;8.38;3.85;;;;;;;;;;5016132;28;20062;-75
2022/05/23 07:21:08;;;;;;;6.90;3.65;;;;;;;;;;5008860;28;20081;-75
2022/05/23 07:23:35;;;;;;;10.60;3.95;;;;;;;;;;5014582;28;20076;-74
2022/05/23 07:26:02;;;;;;;8.85;4.25;;;;;;;;;;5014391;28;20081;-74
2022/05/23 07:28:28;;;;;;;7.63;3.88;;;;;;;;;;5003012;28;20038;-75
2022/05/23 07:30:54;;;;;;;9.13;4.30;;;;;;;;;;5014752;28;20048;-75
2022/05/23 07:33:20;;;;;;;8.80;4.22;;;;;;;;;;5016030;28;20129;-76
2022/05/23 07:35:46;;;;;;;9.27;3.90;;;;;;;;;;5013677;28;20053;-76
2022/05/23 07:38:12;;;;;;;8.48;3.80;;;;;;;;;;5014880;28;20088;-75
2022/05/23 07:40:38;;;;;;;9.60;3.90;;;;;;;;;;5011939;28;20119;-75
2022/05/23 07:43:04;;;;;;;8.50;3.50;;;;;;;;;;5012565;28;20046;-75
2022/05/23 07:45:30;;;;;;;10.82;3.90;;;;;;;;;;5014568;28;20077;-75
2022/05/23 07:47:56;;;;;;;8.27;3.53;;;;;;;;;;5013826;28;20492;-75
2022/05/23 07:50:22;;;;;;;8.20;3.72;;;;;;;;;;5015533;28;20053;-75
2022/05/23 08:01:03;;;;;;;8.05;3.95;;;;;;;;;;5003290;28;20448;-75
2022/05/23 08:03:29;;;;;;;7.82;4.20;;;;;;;;;;5014898;28;20045;-75
2022/05/23 08:05:55;;;;;;;7.47;3.85;;;;;;;;;;5014463;28;20049;-74
2022/05/23 08:08:21;;;;;;;8.48;3.97;;;;;;;;;;5014543;28;20041;-74
2022/05/23 08:10:47;;;;;;;9.43;3.85;;;;;;;;;;5009245;28;20054;-73
2022/05/23 08:13:13;;;;;;;10.23;4.30;;;;;;;;;;5000282;28;20069;-75
2022/05/23 08:15:40;;;;;;;11.38;4.30;;;;;;;;;;5005309;28;20049;-75
2022/05/23 08:18:07;;;;;;;9.00;4.35;;;;;;;;;;5014059;28;20038;-76
2022/05/23 08:20:33;;;;;;;8.77;4.20;;;;;;;;;;5013410;28;20052;-75
2022/05/23 08:22:59;;;;;;;7.97;3.92;;;;;;;;;;5013765;28;20038;-76
2022/05/23 08:25:25;;;;;;;8.23;4.22;;;;;;;;;;5007272;28;20052;-76
2022/05/23 08:27:53;;;;;;;8.98;4.20;;;;;;;;;;4999692;28;20462;-75
2022/05/23 08:30:19;;;;;;;7.95;3.47;;;;;;;;;;5010772;28;20054;-76
2022/05/23 08:32:45;;;;;;;9.57;4.18;;;;;;;;;;5013950;28;20196;-76
2022/05/23 08:35:11;;;;;;;12.00;3.80;;;;;;;;;;5014035;28;20054;-75
2022/05/23 08:37:38;;;;;;;8.25;4.30;;;;;;;;;;5013106;28;20439;-75
2022/05/23 08:40:04;;;;;;;9.57;3.47;;;;;;;;;;5008448;28;20042;-75
2022/05/23 08:42:30;;;;;;;8.98;3.78;;;;;;;;;;5004556;28;20480;-76
2022/05/23 08:45:07;;;;;;;9.63;3.90;;;;;;;;;;5007235;28;21801;-75
2022/05/23 08:47:35;;;;;;;9.93;4.03;;;;;;;;;;5014165;28;20049;-75
2022/05/23 08:50:13;;;;;;;8.45;3.63;;;;;;;;;;4995486;28;20121;-73
2022/05/23 08:52:48;;;;;;;8.02;3.70;;;;;;;;;;4993867;28;20134;-73
2022/05/23 08:55:20;;;;;;;11.27;3.60;;;;;;;;;;4994656;28;20085;-73
2022/05/23 08:57:52;;;;;;;8.48;3.08;;;;;;;;;;5012513;28;20492;-74
2022/05/23 09:00:24;;;;;;;5.93;2.63;;;;;;;;;;4998034;28;20054;-75
2022/05/23 09:03:03;;;;;;;7.25;3.08;;;;;;;;;;4995420;28;20109;-74
2022/05/23 09:05:32;;;;;;;7.38;3.30;;;;;;;;;;5006836;28;20049;-74
2022/05/23 09:08:04;;;;;;;10.57;3.60;;;;;;;;;;5013426;28;20110;-75
2022/05/23 09:10:49;;;;;;;7.88;3.65;;;;;;;;;;5011689;28;20054;-74
2022/05/23 09:13:16;;;;;;;9.93;3.40;;;;;;;;;;4995540;28;20058;-74
2022/05/23 09:15:42;;;;;;;8.30;2.88;;;;;;;;;;5014483;28;20046;-74
2022/05/23 09:18:12;;;;;;;7.22;3.03;;;;;;;;;;5014380;28;20389;-75
2022/05/23 09:20:45;;;;;;;8.68;3.10;;;;;;;;;;5013751;28;20117;-75
2022/05/23 09:23:21;;;;;;;7.63;2.78;;;;;;;;;;5014774;28;20400;-76
2022/05/23 09:25:50;;;;;;;8.77;3.03;;;;;;;;;;5009107;28;20061;-75
2022/05/23 09:28:28;;;;;;;8.30;3.08;;;;;;;;;;5002558;28;20113;-75
2022/05/23 09:30:59;;;;;;;8.13;2.90;;;;;;;;;;5016507;28;20042;-74
2022/05/23 09:33:25;;;;;;;;;;;;;;;;;;5014269;28;20096;-75
2022/05/23 09:35:56;;;;;;;7.18;2.90;;;;;;;;;;5014054;28;20371;-75
2022/05/23 09:38:22;;;;;;;6.60;2.80;;;;;;;;;;5014838;28;20512;-75
2022/05/23 09:40:49;;;;;;;8.65;2.75;;;;;;;;;;5012365;28;20404;-75
2022/05/23 09:49:04;;;;;;;12.10;3.50;;;;;;;;;;5015454;28;20046;-75
2022/05/23 09:51:30;;;;;;;7.70;3.28;;;;;;;;;;5011553;28;20042;-75
2022/05/23 09:53:59;;;;;;;9.25;3.90;;;;;;;;;;4994865;28;20491;-75
2022/05/23 09:56:29;;;;;;;8.82;3.25;;;;;;;;;;5002746;28;20037;-75
2022/05/23 09:58:56;;;;;;;7.97;2.90;;;;;;;;;;5013794;28;20038;-75
2022/05/23 10:01:26;;;;;;;6.88;2.95;;;;;;;;;;5007808;28;20108;-77
2022/05/23 10:03:52;;;;;;;7.00;2.40;;;;;;;;;;5003217;28;20396;-75
2022/05/23 10:06:18;;;;;;;8.88;3.22;;;;;;;;;;5014658;28;20124;-76
2022/05/23 10:08:45;;;;;;;10.63;3.10;;;;;;;;;;5010368;28;20042;-76
2022/05/23 10:11:29;;;;;;;8.25;3.42;;;;;;;;;;5008458;28;20469;-76
2022/05/23 10:13:59;;;;;;;7.30;3.67;;;;;;;;;;5016731;28;20054;-76
2022/05/23 10:16:27;;;;;;;8.53;2.73;;;;;;;;;;5023268;28;20069;-75
2022/05/23 10:19:04;;;;;;;8.15;2.80;;;;;;;;;;5014253;28;20300;-76
2022/05/23 10:21:33;;;;;;;7.78;2.50;;;;;;;;;;5018538;28;20042;-76
2022/05/23 10:24:00;;;;;;;6.90;2.40;;;;;;;;;;5016182;28;20042;-76
2022/05/23 10:26:29;;;;;;;7.95;2.65;;;;;;;;;;5004399;28;20408;-75
2022/05/23 10:29:02;;;;;;;9.43;2.80;;;;;;;;;;5016852;28;20046;-76
2022/05/23 10:31:36;;;;;;;7.72;2.80;;;;;;;;;;5014001;28;20041;-76
2022/05/23 10:34:06;;;;;;;7.88;2.60;;;;;;;;;;5010422;28;20395;-76
2022/05/23 10:36:32;;;;;;;9.30;2.80;;;;;;;;;;5013877;28;20042;-75
2022/05/23 10:42:13;;;;;;;7.88;2.35;;;;;;;;;;5014534;28;20495;-75
2022/05/23 10:44:59;;;;;;;9.40;2.50;;;;;;;;;;5008558;28;20129;-75
2022/05/23 10:47:25;;;;;;;6.82;2.78;;;;;;;;;;5001227;28;20133;-76
2022/05/23 10:50:02;;;;;;;6.18;2.05;;;;;;;;;;5011146;28;20081;-76
2022/05/23 10:52:52;;;;;;;6.63;2.30;;;;;;;;;;5027936;28;20041;-75
2022/05/23 10:55:26;;;;;;;6.72;2.20;;;;;;;;;;5016630;28;20046;-76
2022/05/23 10:58:05;;;;;;;5.70;1.92;;;;;;;;;;5010339;28;20504;-75
2022/05/23 11:00:51;;;;;;;5.80;2.17;;;;;;;;;;5010630;28;20058;-76
2022/05/23 11:03:28;;;;;;;6.35;1.90;;;;;;;;;;5009553;28;20065;-75
2022/05/23 11:06:13;;;;;;;9.18;2.30;;;;;;;;;;5018266;28;20084;-74
2022/05/23 11:08:51;;;;;;;6.82;2.20;;;;;;;;;;5017788;28;20057;-74
2022/05/23 11:11:31;;;;;;;6.85;2.20;;;;;;;;;;5017377;28;20054;-75
2022/05/23 11:14:16;;;;;;;8.45;2.40;;;;;;;;;;5020873;28;20038;-75
2022/05/23 11:16:42;;;;;;;6.53;2.20;;;;;;;;;;5018322;28;20140;-76
2022/05/23 11:19:17;;;;;;;5.47;2.10;;;;;;;;;;5020229;28;20046;-74
2022/05/23 11:21:46;;;;;;;5.85;2.25;;;;;;;;;;5019515;28;20061;-74
2022/05/23 11:24:14;;;;;;;6.22;2.13;;;;;;;;;;5022937;28;20057;-75
2022/05/23 11:26:43;;;;;;;6.70;2.03;;;;;;;;;;5018199;28;20377;-75
2022/05/23 11:34:49;;;;;;;6.65;1.80;;;;;;;;;;5014508;28;20054;-75
2022/05/23 11:39:51;;;;;;;6.63;2.08;;;;;;;;;;5016273;28;20046;-75
2022/05/23 11:42:17;;;;;;;7.53;2.20;;;;;;;;;;5019732;28;20046;-75
2022/05/23 11:44:43;;;;;;;9.13;2.42;;;;;;;;;;5014754;28;20065;-75
2022/05/23 11:47:12;;;;;;;5.40;2.00;;;;;;;;;;5030872;28;20103;-76
2022/05/23 11:49:40;;;;;;;8.18;2.25;;;;;;;;;;5014491;28;20046;-75
2022/05/23 11:52:15;;;;;;;9.15;2.63;;;;;;;;;;5015188;28;20042;-76
2022/05/23 11:54:42;;;;;;;9.43;2.70;;;;;;;;;;5019121;28;20061;-76
2022/05/23 11:57:13;;;;;;;6.90;2.13;;;;;;;;;;5016188;28;20045;-75
2022/05/23 11:59:39;;;;;;;7.68;2.42;;;;;;;;;;5013343;28;20042;-75
2022/05/23 12:02:08;;;;;;;7.53;2.50;;;;;;;;;;5016498;28;20184;-74
2022/05/23 12:04:35;;;;;;;7.53;2.40;;;;;;;;;;5012860;28;20073;-74
2022/05/23 12:07:01;;;;;;;6.40;2.13;;;;;;;;;;5024861;28;20045;-75
2022/05/23 12:09:30;;;;;;;6.97;2.40;;;;;;;;;;5009580;28;20045;-75
2022/05/23 12:12:15;;;;;;;7.70;2.30;;;;;;;;;;5016052;28;20038;-74
2022/05/23 12:14:41;;;;;;;5.95;2.10;;;;;;;;;;5008904;28;20177;-75
2022/05/23 12:17:09;;;;;;;5.65;1.90;;;;;;;;;;5017221;28;20080;-75
2022/05/23 12:19:38;;;;;;;6.57;1.88;;;;;;;;;;5015539;28;20046;-75
2022/05/23 12:22:22;;;;;;;6.55;2.20;;;;;;;;;;5010256;28;20050;-75
2022/05/23 12:25:02;;;;;;;5.30;2.05;;;;;;;;;;5012839;28;20045;-75
2022/05/23 12:27:32;;;;;;;6.03;2.00;;;;;;;;;;5014797;28;20508;-75
2022/05/23 12:29:58;;;;;;;;;;;;;;;;;;5006718;28;20519;-74
2022/05/23 12:32:28;;;;;;;6.45;2.20;;;;;;;;;;5015974;28;19929;-74
2022/05/23 12:34:57;;;;;;;6.03;2.10;;;;;;;;;;5015262;28;20057;-74
2022/05/23 12:37:27;;;;;;;4.65;2.30;;;;;;;;;;5016387;28;20049;-74
2022/05/23 12:39:57;;;;;;;9.38;2.13;;;;;;;;;;5008900;28;20069;-74
2022/05/23 12:42:28;;;;;;;9.18;2.72;;;;;;;;;;5014111;28;20048;-74
2022/05/23 12:45:00;;;;;;;9.27;2.20;;;;;;;;;;5016272;28;20100;-75
2022/05/23 12:47:32;;;;;;;8.45;2.63;;;;;;;;;;5017394;28;20136;-75
2022/05/23 12:50:11;;;;;;;9.23;2.50;;;;;;;;;;5017206;28;20057;-75
2022/05/23 12:52:56;;;;;;;6.57;2.65;;;;;;;;;;5016539;28;20094;-75
2022/05/23 12:55:29;;;;;;;6.13;2.33;;;;;;;;;;5012501;28;20042;-74
2022/05/23 12:57:58;;;;;;;6.93;2.63;;;;;;;;;;5018315;28;20053;-74
2022/05/23 13:00:36;;;;;;;8.48;2.90;;;;;;;;;;5018012;28;20488;-75
2022/05/23 13:03:08;;;;;;;9.75;2.63;;;;;;;;;;5016880;28;20053;-75
2022/05/23 13:05:40;;;;;;;8.27;2.53;;;;;;;;;;5006206;28;20038;-76
2022/05/23 13:08:15;;;;;;;6.95;2.33;;;;;;;;;;4999179;28;20096;-76
2022/05/23 13:10:44;;;;;;;6.80;2.90;;;;;;;;;;5015225;28;20049;-75
2022/05/23 13:13:20;;;;;;;8.02;2.45;;;;;;;;;;5014024;28;20558;-76
2022/05/23 13:15:46;;;;;;;6.28;2.60;;;;;;;;;;5012519;28;20048;-76
2022/05/23 13:23:46;;;;;;;6.78;2.50;;;;;;;;;;5013726;28;20492;-74
2022/05/23 13:26:12;;;;;;;11.40;2.50;;;;;;;;;;5009501;28;20041;-74
2022/05/23 13:28:39;;;;;;;6.60;2.20;;;;;;;;;;5015727;28;20050;-74
2022/05/23 13:31:21;;;;;;;5.85;2.50;;;;;;;;;;5015953;28;20123;-75
2022/05/23 13:33:47;;;;;;;7.28;2.50;;;;;;;;;;5015153;28;20120;-75
2022/05/23 13:36:13;;;;;;;6.53;2.40;;;;;;;;;;5016682;28;20124;-75
2022/05/23 13:38:43;;;;;;;5.68;2.30;;;;;;;;;;5015062;28;20065;-75
2022/05/23 13:41:24;;;;;;;6.50;2.67;;;;;;;;;;5014200;28;20108;-75
2022/05/23 13:43:51;;;;;;;5.82;2.30;;;;;;;;;;5014265;28;20049;-75
2022/05/23 13:46:21;;;;;;;6.20;2.80;;;;;;;;;;5013790;28;20054;-74
2022/05/23 13:48:49;;;;;;;6.13;2.33;;;;;;;;;;5014944;28;20042;-75
2022/05/23 13:51:26;;;;;;;5.68;2.13;;;;;;;;;;5014024;28;20550;-74
2022/05/23 13:53:55;;;;;;;5.25;2.20;;;;;;;;;;5006609;28;20054;-75
2022/05/23 13:56:22;;;;;;;7.68;2.38;;;;;;;;;;5013956;28;20038;-75
2022/05/23 13:59:05;;;;;;;6.28;2.30;;;;;;;;;;4999336;28;20158;-75
2022/05/23 14:01:31;;;;;;;6.50;2.10;;;;;;;;;;4995793;28;20046;-75
2022/05/23 14:04:03;;;;;;;6.13;2.60;;;;;;;;;;5013128;28;20085;-75
2022/05/23 14:06:32;;;;;;;5.40;2.13;;;;;;;;;;5012966;28;20053;-76
2022/05/23 14:09:00;;;;;;;7.45;2.40;;;;;;;;;;5013903;28;20404;-76
2022/05/23 14:11:29;;;;;;;8.52;2.33;;;;;;;;;;5013280;28;20057;-75
2022/05/23 14:14:01;;;;;;;10.00;2.47;;;;;;;;;;5009017;28;20500;-74
2022/05/23 14:16:27;;;;;;;6.72;2.35;;;;;;;;;;5011935;28;20180;-75
2022/05/23 14:19:04;;;;;;;6.28;2.60;;;;;;;;;;5041650;28;20069;-74
2022/05/23 14:21:35;;;;;;;5.13;2.25;;;;;;;;;;5021060;28;20042;-75
2022/05/23 14:24:02;;;;;;;8.93;2.50;;;;;;;;;;5012331;28;20038;-74
2022/05/23 14:26:29;;;;;;;6.45;2.50;;;;;;;;;;5021323;28;20507;-74
2022/05/23 14:28:56;;;;;;;6.43;2.38;;;;;;;;;;5023496;28;20042;-75
2022/05/23 14:31:29;;;;;;;5.32;2.17;;;;;;;;;;5025065;28;20122;-76
2022/05/23 14:34:00;;;;;;;5.10;2.20;;;;;;;;;;5023907;28;20037;-75
2022/05/23 14:36:26;;;;;;;6.93;2.47;;;;;;;;;;5019225;28;20711;-75
2022/05/23 14:39:04;;;;;;;7.60;2.40;;;;;;;;;;5021906;28;20129;-74
2022/05/23 14:41:32;;;;;;;9.13;2.60;;;;;;;;;;5003428;28;20101;-75
2022/05/23 14:44:01;;;;;;;9.88;2.75;;;;;;;;;;5003439;28;20069;-75
2022/05/23 14:46:29;;;;;;;5.10;2.30;;;;;;;;;;5023221;28;20045;-74
2022/05/23 14:48:57;;;;;;;6.05;2.13;;;;;;;;;;5017037;28;20370;-75
2022/05/23 14:51:28;;;;;;;6.53;2.60;;;;;;;;;;5006171;28;20505;-75
2022/05/23 14:57:06;;;;;;;6.70;2.65;;;;;;;;;;5020673;28;20057;-75
2022/05/23 15:02:18;;;;;;;8.82;3.10;;;;;;;;;;5026115;28;20608;-75
2022/05/23 15:04:46;;;;;;;8.23;2.78;;;;;;;;;;5022764;28;20033;-77
2022/05/23 15:07:13;;;;;;;4.90;2.50;;;;;;;;;;5017379;28;20054;-76
2022/05/23 15:09:39;;;;;;;6.88;2.85;;;;;;;;;;5007780;28;20092;-76
2022/05/23 15:12:09;;;;;;;7.70;2.70;;;;;;;;;;5013166;28;20050;-76
2022/05/23 15:14:36;;;;;;;6.45;2.85;;;;;;;;;;5015549;28;20034;-75
2022/05/23 15:17:02;;;;;;;6.80;2.92;;;;;;;;;;5007410;28;20053;-75
2022/05/23 15:19:28;;;;;;;8.75;3.00;;;;;;;;;;5022111;28;20065;-74
2022/05/23 15:21:54;;;;;;;6.68;2.63;;;;;;;;;;5021438;28;20045;-75
2022/05/23 15:24:20;;;;;;;8.75;3.00;;;;;;;;;;5019862;28;20514;-76
2022/05/23 15:26:47;;;;;;;10.18;2.88;;;;;;;;;;5022391;28;20054;-75
2022/05/23 15:29:13;;;;;;;8.07;2.75;;;;;;;;;;5018967;28;20050;-76
2022/05/23 15:31:45;;;;;;;7.15;2.70;;;;;;;;;;5018506;28;20108;-75
2022/05/23 15:34:12;;;;;;;6.80;2.47;;;;;;;;;;5020777;28;20484;-76
2022/05/23 15:36:39;;;;;;;6.93;2.95;;;;;;;;;;5017973;28;20041;-76
2022/05/23 15:39:05;;;;;;;9.52;3.05;;;;;;;;;;5012563;28;20038;-77
2022/05/23 15:41:33;;;;;;;8.10;2.90;;;;;;;;;;5016621;28;20077;-76
2022/05/23 15:43:59;;;;;;;7.28;2.95;;;;;;;;;;5020137;28;20048;-76
2022/05/23 15:46:26;;;;;;;6.93;2.95;;;;;;;;;;5019716;28;20053;-76
2022/05/23 15:48:52;;;;;;;7.32;2.97;;;;;;;;;;5004163;28;20116;-76
2022/05/23 15:51:18;;;;;;;7.47;2.90;;;;;;;;;;5012617;28;20045;-76
2022/05/23 15:53:45;;;;;;;9.13;2.78;;;;;;;;;;5034919;28;20057;-75
2022/05/23 15:56:12;;;;;;;6.43;2.50;;;;;;;;;;5015034;28;20046;-74
2022/05/23 15:58:40;;;;;;;6.28;2.65;;;;;;;;;;5019404;28;20046;-75
2022/05/23 16:01:09;;;;;;;5.97;2.63;;;;;;;;;;5019983;28;20054;-75